createdAt,value
2023-01-26T00:01:41.118Z,18.80
2023-01-26T00:05:55.449Z,18.00
2023-01-26T00:10:16.103Z,18.20
2023-01-26T00:14:33.368Z,17.90
2023-01-26T00:18:53.761Z,16.80
2023-01-26T00:23:15.114Z,17.50
2023-01-26T00:27:33.450Z,28.80
2023-01-26T00:31:58.438Z,30.00
2023-01-26T00:36:27.182Z,24.30
2023-01-26T00:40:44.277Z,23.80
2023-01-26T00:45:09.036Z,22.10
2023-01-26T00:49:13.933Z,23.30
2023-01-26T00:53:08.400Z,18.40
2023-01-26T00:57:05.766Z,23.40
2023-01-26T01:01:46.764Z,23.80
2023-01-26T01:06:14.684Z,22.20
2023-01-26T01:10:45.492Z,21.60
2023-01-26T01:15:11.099Z,23.10
2023-01-26T01:19:38.796Z,22.90
2023-01-26T01:24:09.408Z,26.70
2023-01-26T01:28:26.271Z,25.20
2023-01-26T01:37:44.664Z,26.00
2023-01-26T01:42:01.867Z,28.50
2023-01-26T01:50:52.490Z,33.40
2023-01-26T01:55:20.648Z,33.10
2023-01-26T01:59:52.336Z,31.10
2023-01-26T02:04:12.975Z,30.80
2023-01-26T02:08:31.052Z,22.40
2023-01-26T02:12:25.062Z,29.50
2023-01-26T02:16:34.592Z,29.50
2023-01-26T02:21:15.049Z,30.50
2023-01-26T02:25:43.005Z,29.90
2023-01-26T02:30:22.564Z,28.80
2023-01-26T02:38:45.936Z,26.70
2023-01-26T02:43:23.119Z,26.80
2023-01-26T02:48:00.603Z,24.80
2023-01-26T02:52:12.954Z,24.60
2023-01-26T02:56:46.800Z,26.80
2023-01-26T03:00:43.692Z,24.10
2023-01-26T03:05:06.087Z,18.60
2023-01-26T03:09:25.614Z,17.20
2023-01-26T03:17:19.112Z,21.30
2023-01-26T03:21:13.940Z,23.90
2023-01-26T03:25:15.058Z,25.80
2023-01-26T03:29:37.092Z,25.10
2023-01-26T03:37:00.397Z,32.40
2023-01-26T03:40:37.979Z,32.60
2023-01-26T03:44:40.730Z,33.50
2023-01-26T03:48:52.878Z,34.50
2023-01-26T03:53:30.897Z,32.60
2023-01-26T03:57:49.284Z,34.50
2023-01-26T04:01:44.425Z,35.20
2023-01-26T04:05:38.714Z,36.30
2023-01-26T04:16:25.792Z,39.20
2023-01-26T04:20:15.075Z,42.60
2023-01-26T04:24:07.162Z,40.60
2023-01-26T04:27:54.389Z,40.10
2023-01-26T04:31:46.187Z,38.30
2023-01-26T04:35:42.126Z,38.00
2023-01-26T04:39:45.283Z,36.30
2023-01-26T04:43:30.141Z,35.70
2023-01-26T04:47:24.179Z,32.70
2023-01-26T04:51:14.175Z,35.00
2023-01-26T04:55:11.183Z,34.00
2023-01-26T04:59:01.148Z,33.80
2023-01-26T05:02:48.181Z,29.60
2023-01-26T05:06:37.196Z,34.00
2023-01-26T05:10:29.193Z,33.60
2023-01-26T05:15:26.254Z,36.20
2023-01-26T05:19:22.271Z,35.50
2023-01-26T05:23:44.314Z,32.30
2023-01-26T05:27:49.231Z,31.60
2023-01-26T05:31:42.498Z,35.00
2023-01-26T05:35:34.268Z,33.40
2023-01-26T05:40:00.220Z,37.30
2023-01-26T05:44:33.289Z,39.70
2023-01-26T05:48:17.307Z,35.10
2023-01-26T05:52:12.271Z,36.60
2023-01-26T06:00:21.889Z,37.30
2023-01-26T06:08:30.541Z,38.70
2023-01-26T06:12:38.267Z,38.00
2023-01-26T06:16:56.248Z,39.50
2023-01-26T06:25:03.502Z,38.30
2023-01-26T06:29:04.329Z,39.10
2023-01-26T06:33:10.317Z,40.20
2023-01-26T06:37:13.549Z,39.20
2023-01-26T06:40:43.306Z,40.10
2023-01-26T06:44:44.291Z,44.40
2023-01-26T06:48:54.337Z,52.00
2023-01-26T06:52:43.317Z,43.00
2023-01-26T06:56:36.347Z,45.70
2023-01-26T07:00:13.459Z,49.30
2023-01-26T07:04:17.355Z,49.80
2023-01-26T07:12:00.854Z,52.50
2023-01-26T07:15:58.332Z,52.40
2023-01-26T07:19:36.579Z,52.10
2023-01-26T07:23:32.253Z,52.50
2023-01-26T07:27:18.687Z,56.00
2023-01-26T07:30:55.348Z,55.90
2023-01-26T07:34:37.356Z,54.80
2023-01-26T07:38:23.394Z,50.80
2023-01-26T07:42:20.357Z,54.40
2023-01-26T07:46:14.333Z,55.30
2023-01-26T07:53:50.369Z,55.00
2023-01-26T07:57:33.405Z,62.90
2023-01-26T08:02:02.857Z,65.90
2023-01-26T08:05:36.328Z,64.10
2023-01-26T08:09:26.418Z,64.60
2023-01-26T08:16:54.392Z,48.80
2023-01-26T08:20:43.399Z,63.00
2023-01-26T08:28:05.406Z,62.00
2023-01-26T08:32:03.402Z,56.20
2023-01-26T08:35:59.427Z,60.90
2023-01-26T08:39:59.414Z,57.40
2023-01-26T08:44:05.370Z,58.80
2023-01-26T08:48:00.428Z,59.30
2023-01-26T08:52:04.735Z,55.20
2023-01-26T08:55:55.871Z,52.40
2023-01-26T08:59:44.514Z,48.60
2023-01-26T09:03:39.535Z,55.00
2023-01-26T09:07:30.761Z,58.10
2023-01-26T09:11:13.476Z,60.60
2023-01-26T09:14:54.425Z,57.10
2023-01-26T09:18:54.401Z,53.10
2023-01-26T09:22:40.476Z,48.30
2023-01-26T09:26:30.486Z,47.70
2023-01-26T09:30:47.516Z,49.80
2023-01-26T09:49:01.682Z,46.60
2023-01-26T12:13:55.615Z,26.50
2023-01-26T12:25:47.017Z,34.50
2023-01-26T12:29:47.658Z,34.60
2023-01-26T12:37:36.053Z,26.50
2023-01-26T12:45:25.648Z,26.40
2023-01-26T12:52:49.582Z,28.40
2023-01-26T12:56:47.628Z,30.60
2023-01-26T13:19:33.768Z,27.60
2023-01-26T13:23:20.598Z,28.60
2023-01-26T13:27:30.514Z,27.40
2023-01-26T13:31:14.948Z,27.70
2023-01-26T13:35:20.768Z,26.90
2023-01-26T13:39:22.615Z,27.40
2023-01-26T13:43:28.670Z,26.00
2023-01-26T13:47:28.752Z,25.50
2023-01-26T13:55:22.674Z,23.90
2023-01-26T14:06:33.329Z,26.10
2023-01-26T14:18:55.195Z,22.30
2023-01-26T14:26:47.757Z,22.80
2023-01-26T14:34:42.766Z,21.90
2023-01-26T14:38:35.683Z,23.70
2023-01-26T14:42:20.568Z,26.00
2023-01-26T14:45:59.814Z,25.40
2023-01-26T14:49:43.735Z,28.80
2023-01-26T14:53:28.722Z,25.90
2023-01-26T14:57:09.617Z,24.30
2023-01-26T15:00:56.752Z,26.20
2023-01-26T15:04:45.700Z,26.30
2023-01-26T15:08:30.860Z,28.80
2023-01-26T15:12:31.874Z,28.30
2023-01-26T15:16:37.751Z,26.70
2023-01-26T15:20:48.798Z,30.90
2023-01-26T15:24:53.842Z,29.30
2023-01-26T15:28:47.400Z,30.30
2023-01-26T15:37:34.866Z,32.50
2023-01-26T15:41:23.027Z,32.00
2023-01-26T15:45:55.615Z,34.30
2023-01-26T15:49:54.852Z,33.70
2023-01-26T15:53:24.195Z,35.40
2023-01-26T15:57:17.573Z,36.40
2023-01-26T16:01:10.239Z,34.60
2023-01-26T16:05:14.392Z,36.10
2023-01-26T16:09:21.987Z,35.80
2023-01-26T16:13:19.855Z,35.70
2023-01-26T16:17:11.623Z,38.90
2023-01-26T16:21:13.684Z,41.00
2023-01-26T16:24:59.418Z,37.90
2023-01-26T16:28:56.966Z,39.00
2023-01-26T16:33:06.111Z,37.20
2023-01-26T16:37:09.096Z,38.40
2023-01-26T16:41:22.972Z,40.90
2023-01-26T16:45:09.125Z,42.40
2023-01-26T16:49:04.041Z,42.90
2023-01-26T16:53:13.849Z,41.50
2023-01-26T16:57:16.305Z,39.60
2023-01-26T17:01:26.503Z,38.60
2023-01-26T17:05:39.987Z,37.20
2023-01-26T17:09:31.284Z,39.90
2023-01-26T17:13:27.123Z,40.10
2023-01-26T17:17:25.565Z,40.40
2023-01-26T17:21:28.505Z,40.00
2023-01-26T17:25:38.102Z,39.70
2023-01-26T17:33:59.217Z,39.50
2023-01-26T17:37:51.218Z,39.70
2023-01-26T17:41:52.573Z,39.50
2023-01-26T17:45:53.523Z,36.90
2023-01-26T17:50:04.604Z,34.90
2023-01-26T17:54:06.547Z,33.50
2023-01-26T17:58:03.934Z,33.50
2023-01-26T18:02:04.383Z,35.10
2023-01-26T18:05:46.416Z,35.80
2023-01-26T18:09:47.137Z,40.00
2023-01-26T18:13:40.830Z,39.20
2023-01-26T18:17:41.050Z,39.50
2023-01-26T18:21:32.455Z,34.90
2023-01-26T18:25:06.842Z,34.70
2023-01-26T18:29:01.175Z,33.20
2023-01-26T18:32:33.354Z,34.00
2023-01-26T18:36:27.927Z,34.90
2023-01-26T18:40:30.770Z,35.10
2023-01-26T18:44:35.199Z,33.70
2023-01-26T18:48:35.452Z,60.80
2023-01-26T18:52:30.720Z,62.40
2023-01-26T18:56:23.454Z,48.90
2023-01-26T19:00:29.095Z,35.70
2023-01-26T19:04:26.897Z,36.30
2023-01-26T19:08:23.818Z,32.70
2023-01-26T19:12:11.158Z,36.10
2023-01-26T19:15:55.142Z,32.90
2023-01-26T23:28:30.070Z,40.70
2023-01-26T23:32:26.169Z,40.90
2023-01-26T23:36:18.204Z,34.90
2023-01-26T23:40:06.764Z,33.30
2023-01-26T23:44:20.057Z,37.20
2023-01-26T23:48:36.135Z,34.30
2023-01-26T23:52:55.970Z,38.70
2023-01-26T23:56:45.500Z,38.60
